createdAt,value
2014-06-26T00:00:11.771Z,15.91
2014-06-26T00:01:16.461Z,15.84
2014-06-26T00:02:21.432Z,15.75
2014-06-26T00:03:26.123Z,15.72
2014-06-26T00:04:30.797Z,15.62
2014-06-26T00:05:35.487Z,15.61
2014-06-26T00:06:40.160Z,15.72
2014-06-26T00:07:44.849Z,15.68
2014-06-26T00:08:49.524Z,15.49
2014-06-26T00:09:54.213Z,15.47
2014-06-26T00:10:58.887Z,15.46
2014-06-26T00:12:03.576Z,15.63
2014-06-26T00:13:08.250Z,15.66
2014-06-26T00:14:13.237Z,15.78
2014-06-26T00:15:18.222Z,15.77
2014-06-26T00:16:22.896Z,15.64
2014-06-26T00:17:27.885Z,15.62
2014-06-26T00:18:32.855Z,15.62
2014-06-26T00:19:37.545Z,15.62
2014-06-26T00:20:42.530Z,15.54
2014-06-26T00:21:47.205Z,15.51
2014-06-26T00:22:51.895Z,15.58
2014-06-26T00:23:56.567Z,15.67
2014-06-26T00:25:01.257Z,15.59
2014-06-26T00:26:05.931Z,15.83
2014-06-26T00:27:10.620Z,16.06
2014-06-26T00:28:15.295Z,15.99
2014-06-26T00:29:20.281Z,16.12
2014-06-26T00:30:24.956Z,16.3
2014-06-26T00:31:29.646Z,16.16
2014-06-26T00:32:34.617Z,16.06
2014-06-26T00:33:39.306Z,15.82
2014-06-26T00:34:43.996Z,15.51
2014-06-26T00:35:48.685Z,15.34
2014-06-26T00:36:53.656Z,15.39
2014-06-26T00:37:58.345Z,15.52
2014-06-26T00:39:03.331Z,15.64
2014-06-26T00:40:08.302Z,15.66
2014-06-26T00:41:12.992Z,15.83
2014-06-26T00:42:17.665Z,15.92
2014-06-26T00:43:22.354Z,15.62
2014-06-26T00:44:27.030Z,15.9
2014-06-26T00:45:31.720Z,15.92
2014-06-26T00:46:36.394Z,15.64
2014-06-26T00:47:41.082Z,15.32
2014-06-26T00:48:46.054Z,15.27
2014-06-26T00:49:50.742Z,15.18
2014-06-26T00:50:55.432Z,15.25
2014-06-26T00:52:00.403Z,15.22
2014-06-26T00:53:05.092Z,15.22
2014-06-26T00:54:09.766Z,15.18
2014-06-26T00:55:14.456Z,15.13
2014-06-26T00:56:19.129Z,15.23
2014-06-26T00:57:23.803Z,15.15
2014-06-26T00:58:28.792Z,15.15
2014-06-26T00:59:33.778Z,15.08
2014-06-26T01:00:38.451Z,15.27
2014-06-26T01:01:43.140Z,15.52
2014-06-26T01:02:47.127Z,15.68
2014-06-26T01:03:51.816Z,15.72
2014-06-26T01:04:56.506Z,15.68
2014-06-26T01:06:01.478Z,15.62
2014-06-26T01:07:06.166Z,15.5
2014-06-26T01:08:10.168Z,15.21
2014-06-26T01:09:15.139Z,15.04
2014-06-26T01:10:19.828Z,15.16
2014-06-26T01:11:24.815Z,15.52
2014-06-26T01:12:29.802Z,15.31
2014-06-26T01:13:34.476Z,15.3
2014-06-26T01:14:39.165Z,15.21
2014-06-26T01:15:43.840Z,15.06
2014-06-26T01:16:48.530Z,15.39
2014-06-26T01:17:53.218Z,15.75
2014-06-26T01:18:57.893Z,15.77
2014-06-26T01:20:02.583Z,15.52
2014-06-26T01:21:07.568Z,15.34
2014-06-26T01:22:12.242Z,15.16
2014-06-26T01:23:17.228Z,15.04
2014-06-26T01:24:21.918Z,14.96
2014-06-26T01:25:26.607Z,14.92
2014-06-26T01:26:31.283Z,14.95
2014-06-26T01:27:35.973Z,14.91
2014-06-26T01:28:40.646Z,14.9
2014-06-26T01:29:45.335Z,14.9
2014-06-26T01:30:50.321Z,14.86
2014-06-26T01:31:54.995Z,15.02
2014-06-26T01:32:59.685Z,15.24
2014-06-26T01:34:04.359Z,15.4
2014-06-26T01:35:09.345Z,14.84
2014-06-26T01:36:14.331Z,15.09
2014-06-26T01:37:19.005Z,15.19
2014-06-26T01:38:23.694Z,14.94
2014-06-26T01:39:28.665Z,14.94
2014-06-26T01:40:33.653Z,15.1
2014-06-26T01:41:38.624Z,15.02
2014-06-26T01:42:43.610Z,14.48
2014-06-26T01:43:48.285Z,14.52
2014-06-26T01:44:52.286Z,14.7
2014-06-26T01:45:56.960Z,14.72
2014-06-26T01:47:01.650Z,14.54
2014-06-26T01:48:06.323Z,14.64
2014-06-26T01:49:11.013Z,14.63
2014-06-26T01:50:15.687Z,14.44
2014-06-26T01:51:20.376Z,14.44
2014-06-26T01:52:25.346Z,14.41
2014-06-26T01:53:30.038Z,14.37
2014-06-26T01:54:34.712Z,14.5
2014-06-26T01:55:39.698Z,14.35
2014-06-26T01:56:44.668Z,14.6
2014-06-26T01:57:49.358Z,14.9
2014-06-26T01:58:54.032Z,15.06
2014-06-26T01:59:58.721Z,15.3
2014-06-26T02:01:03.395Z,15.4
2014-06-26T02:02:08.381Z,15.2
2014-06-26T02:03:13.071Z,15.2
2014-06-26T02:04:17.745Z,14.68
2014-06-26T02:05:22.419Z,14.59
2014-06-26T02:06:27.404Z,14.48
2014-06-26T02:07:32.097Z,14.22
2014-06-26T02:08:37.066Z,14.18
2014-06-26T02:09:41.756Z,14.58
2014-06-26T02:10:46.430Z,14.8
2014-06-26T02:11:51.417Z,14.81
2014-06-26T02:12:56.090Z,14.95
2014-06-26T02:14:00.779Z,15
2014-06-26T02:15:05.453Z,14.78
2014-06-26T02:16:10.440Z,14.45
2014-06-26T02:17:15.129Z,14.34
2014-06-26T02:18:19.803Z,14.66
2014-06-26T02:19:24.494Z,14.61
2014-06-26T02:20:29.205Z,14.56
2014-06-26T02:21:34.269Z,14.68
2014-06-26T02:22:38.981Z,14.78
2014-06-26T02:23:43.708Z,14.61
2014-06-26T02:24:48.396Z,14.59
2014-06-26T02:25:53.099Z,14.61
2014-06-26T02:26:58.083Z,14.65
2014-06-26T02:28:02.787Z,14.72
2014-06-26T02:29:07.489Z,14.62
2014-06-26T02:30:12.168Z,14.27
2014-06-26T02:31:16.863Z,14.46
2014-06-26T02:32:21.542Z,14.54
2014-06-26T02:33:26.236Z,14.44
2014-06-26T02:34:30.931Z,13.99
2014-06-26T02:35:35.610Z,14.08
2014-06-26T02:36:40.301Z,14.29
2014-06-26T02:37:44.977Z,14.22
2014-06-26T02:38:49.653Z,14.23
2014-06-26T02:39:54.343Z,14.02
2014-06-26T02:40:59.016Z,14.24
2014-06-26T02:42:03.707Z,14.15
2014-06-26T02:43:08.380Z,14.16
2014-06-26T02:44:13.070Z,13.92
2014-06-26T02:45:17.744Z,14.04
2014-06-26T02:46:22.434Z,14.26
2014-06-26T02:47:27.108Z,14.42
2014-06-26T02:48:32.096Z,14.55
2014-06-26T02:49:36.771Z,14.35
2014-06-26T02:50:41.461Z,14.48
2014-06-26T02:51:46.150Z,14.51
2014-06-26T02:52:50.824Z,14.43
2014-06-26T02:53:55.514Z,14.28
2014-06-26T02:54:59.797Z,14.14
2014-06-26T02:56:04.486Z,13.8
2014-06-26T02:57:09.473Z,13.88
2014-06-26T02:58:14.444Z,13.82
2014-06-26T02:59:19.429Z,13.76
2014-06-26T03:00:24.103Z,14.06
2014-06-26T03:01:28.792Z,14.28
2014-06-26T03:02:33.763Z,14.32
2014-06-26T03:03:38.467Z,14.28
2014-06-26T03:04:43.160Z,14.34
2014-06-26T03:05:47.865Z,14.19
2014-06-26T03:06:52.851Z,14.02
2014-06-26T03:07:57.524Z,14.14
2014-06-26T03:09:02.215Z,13.92
2014-06-26T03:10:06.889Z,14.01
2014-06-26T03:11:11.577Z,13.93
2014-06-26T03:12:16.251Z,13.78
2014-06-26T03:13:20.940Z,13.68
2014-06-26T03:14:25.614Z,14.06
2014-06-26T03:15:30.304Z,14.04
2014-06-26T03:16:34.993Z,13.82
2014-06-26T03:17:39.667Z,13.95
2014-06-26T03:18:44.639Z,14.02
2014-06-26T03:19:49.329Z,14.14
2014-06-26T03:20:54.316Z,14.02
2014-06-26T03:21:59.286Z,13.81
2014-06-26T03:23:04.272Z,13.48
2014-06-26T03:24:08.259Z,13.5
2014-06-26T03:25:12.948Z,13.53
2014-06-26T03:26:17.919Z,13.32
2014-06-26T03:27:22.905Z,13.67
2014-06-26T03:28:27.876Z,14.06
2014-06-26T03:29:32.565Z,14.14
2014-06-26T03:30:37.238Z,14.01
2014-06-26T03:31:41.929Z,13.46
2014-06-26T03:32:46.619Z,13.52
2014-06-26T03:33:51.293Z,13.45
2014-06-26T03:34:56.280Z,13.33
2014-06-26T03:36:00.954Z,13.49
2014-06-26T03:37:05.940Z,13.91
2014-06-26T03:38:10.613Z,14.1
2014-06-26T03:39:15.287Z,13.67
2014-06-26T03:40:19.978Z,13.44
2014-06-26T03:41:24.652Z,13.62
2014-06-26T03:42:29.639Z,13.46
2014-06-26T03:43:34.313Z,13.5
2014-06-26T03:44:39.002Z,13.78
2014-06-26T03:45:43.675Z,14.08
2014-06-26T03:46:48.365Z,14.14
2014-06-26T03:47:53.040Z,14.18
2014-06-26T03:48:58.041Z,13.96
2014-06-26T03:50:03.031Z,13.76
2014-06-26T03:51:07.314Z,13.68
2014-06-26T03:52:12.004Z,13.91
2014-06-26T03:53:16.678Z,13.98
2014-06-26T03:54:21.352Z,13.94
2014-06-26T03:55:26.338Z,13.92
2014-06-26T03:56:31.027Z,14.07
2014-06-26T03:57:35.998Z,14.08
2014-06-26T03:58:40.688Z,14.01
2014-06-26T03:59:45.363Z,14.16
2014-06-26T04:00:50.036Z,14.19
2014-06-26T04:01:54.726Z,14
2014-06-26T04:02:59.698Z,13.74
2014-06-26T04:04:04.684Z,13.62
2014-06-26T04:05:09.373Z,13.64
2014-06-26T04:06:14.046Z,13.78
2014-06-26T04:07:18.736Z,13.79
2014-06-26T04:08:23.707Z,13.85
2014-06-26T04:09:28.396Z,13.96
2014-06-26T04:10:33.664Z,13.82
2014-06-26T04:11:38.650Z,13.95
2014-06-26T04:12:43.620Z,14.15
2014-06-26T04:13:48.608Z,14.22
2014-06-26T04:14:53.282Z,13.84
2014-06-26T04:15:57.956Z,13.87
2014-06-26T04:17:02.646Z,13.77
2014-06-26T04:18:07.335Z,13.73
2014-06-26T04:19:12.009Z,13.88
2014-06-26T04:20:16.698Z,14.1
2014-06-26T04:21:21.372Z,14.08
2014-06-26T04:22:26.061Z,14.24
2014-06-26T04:23:30.735Z,14.16
2014-06-26T04:24:35.425Z,14.2
2014-06-26T04:25:40.395Z,14.11
2014-06-26T04:26:45.085Z,14.14
2014-06-26T04:27:50.057Z,14.12
2014-06-26T04:28:54.747Z,14
2014-06-26T04:29:59.717Z,13.94
2014-06-26T04:31:04.704Z,13.71
2014-06-26T04:32:09.675Z,13.76
2014-06-26T04:33:14.364Z,13.45
2014-06-26T04:34:19.350Z,13.44
2014-06-26T04:35:24.321Z,13.57
2014-06-26T04:36:29.011Z,13.22
2014-06-26T04:37:33.684Z,13.13
2014-06-26T04:38:38.671Z,13.5
2014-06-26T04:39:43.344Z,13.75
2014-06-26T04:40:48.331Z,14.05
2014-06-26T04:41:53.022Z,14.1
2014-06-26T04:42:57.696Z,14.16
2014-06-26T04:44:02.369Z,13.95
2014-06-26T04:45:07.356Z,13.9
2014-06-26T04:46:12.045Z,14.11
2014-06-26T04:47:17.016Z,14.3
2014-06-26T04:48:21.706Z,14.21
2014-06-26T04:49:26.379Z,14.28
2014-06-26T04:50:31.069Z,14.35
2014-06-26T04:51:35.743Z,14.51
2014-06-26T04:52:40.728Z,14.44
2014-06-26T04:53:45.402Z,14.78
2014-06-26T04:54:50.092Z,14.84
2014-06-26T04:55:54.767Z,15.01
2014-06-26T04:56:59.464Z,15.4
2014-06-26T04:58:04.434Z,15.4
2014-06-26T04:59:09.123Z,15.53
2014-06-26T05:00:13.796Z,15.62
2014-06-26T05:01:18.486Z,15.62
2014-06-26T05:02:23.457Z,15.76
2014-06-26T05:03:28.444Z,15.24
2014-06-26T05:04:33.414Z,15.6
2014-06-26T05:05:38.103Z,15.7
2014-06-26T05:06:42.825Z,16.21
2014-06-26T05:07:47.513Z,16.02
2014-06-26T05:08:52.187Z,15.61
2014-06-26T05:09:56.868Z,16.04
2014-06-26T05:11:01.556Z,16.32
2014-06-26T05:12:06.230Z,16
2014-06-26T05:13:10.920Z,15.6
2014-06-26T05:14:15.593Z,15.64
2014-06-26T05:15:20.580Z,15.68
2014-06-26T05:16:25.254Z,15.73
2014-06-26T05:17:29.943Z,16.24
2014-06-26T05:18:34.914Z,16.49
2014-06-26T05:19:39.603Z,16.46
2014-06-26T05:20:44.276Z,16.24
2014-06-26T05:21:49.263Z,16.39
2014-06-26T05:22:53.937Z,16.5
2014-06-26T05:23:58.925Z,16.36
2014-06-26T05:25:03.896Z,16.24
2014-06-26T05:26:08.882Z,16.7
2014-06-26T05:27:13.180Z,16.96
2014-06-26T05:28:18.167Z,16.98
2014-06-26T05:29:22.841Z,17.1
2014-06-26T05:30:27.531Z,17.06
2014-06-26T05:31:32.516Z,16.91
2014-06-26T05:32:37.190Z,17.27
2014-06-26T05:33:41.879Z,17.21
2014-06-26T05:34:46.850Z,17.71
2014-06-26T05:35:51.541Z,17.85
2014-06-26T05:36:56.214Z,17.8
2014-06-26T05:38:00.905Z,17.78
2014-06-26T05:39:05.876Z,17.79
2014-06-26T05:40:10.877Z,17.93
2014-06-26T05:41:15.551Z,17.99
2014-06-26T05:42:20.538Z,17.73
2014-06-26T05:43:25.228Z,17.92
2014-06-26T05:44:30.198Z,18.04
2014-06-26T05:45:35.185Z,18.28
2014-06-26T05:46:40.155Z,18.31
2014-06-26T05:47:45.141Z,18.39
2014-06-26T05:48:49.816Z,18.5
2014-06-26T05:49:54.505Z,18.42
2014-06-26T05:50:59.178Z,18.61
2014-06-26T05:52:03.870Z,18.41
2014-06-26T05:53:08.840Z,18.63
2014-06-26T05:54:13.530Z,18.42
2014-06-26T05:55:18.205Z,18.08
2014-06-26T05:56:23.190Z,18.14
2014-06-26T05:57:27.880Z,18.5
2014-06-26T05:58:32.553Z,18.86
2014-06-26T05:59:37.243Z,18.75
2014-06-26T06:00:41.917Z,18.97
2014-06-26T06:01:46.904Z,18.83
2014-06-26T06:02:51.594Z,19.22
2014-06-26T06:03:56.283Z,19.4
2014-06-26T06:05:00.956Z,19.39
2014-06-26T06:06:05.647Z,19.21
2014-06-26T06:07:10.617Z,19.14
2014-06-26T06:08:15.307Z,19.21
2014-06-26T06:09:20.278Z,19.51
2014-06-26T06:10:25.264Z,19.94
2014-06-26T06:11:30.249Z,20.45
2014-06-26T06:12:35.236Z,22.28
2014-06-26T06:13:39.910Z,24.88
2014-06-26T06:14:44.599Z,26.19
2014-06-26T06:15:49.585Z,27.6
2014-06-26T06:16:54.259Z,28.63
2014-06-26T06:17:58.949Z,28.38
2014-06-26T06:19:03.623Z,29.6
2014-06-26T06:20:08.611Z,30.2
2014-06-26T06:21:13.301Z,29.36
2014-06-26T06:22:18.287Z,31.01
2014-06-26T06:23:22.976Z,31.5
2014-06-26T06:24:27.666Z,31.53
2014-06-26T06:25:32.355Z,32.96
2014-06-26T06:26:37.044Z,32.48
2014-06-26T06:27:42.046Z,33.54
2014-06-26T06:28:46.735Z,34.11
2014-06-26T06:29:51.425Z,34.38
2014-06-26T06:30:56.411Z,32.9
2014-06-26T06:32:01.101Z,30.24
2014-06-26T06:33:05.790Z,29.39
2014-06-26T06:34:10.481Z,28.88
2014-06-26T06:35:15.170Z,27.92
2014-06-26T06:36:20.172Z,26.44
2014-06-26T06:37:24.863Z,25.92
2014-06-26T06:38:29.849Z,24.37
2014-06-26T06:39:34.539Z,23.79
2014-06-26T06:40:39.525Z,23.53
2014-06-26T06:41:44.214Z,23.19
2014-06-26T06:42:48.216Z,23.42
2014-06-26T06:43:52.889Z,23.44
2014-06-26T06:44:57.876Z,23.28
2014-06-26T06:46:02.565Z,22.67
2014-06-26T06:47:07.255Z,22.84
2014-06-26T06:48:11.946Z,22.68
2014-06-26T06:49:16.635Z,22.36
2014-06-26T06:50:21.310Z,22.22
2014-06-26T06:51:25.999Z,21.94
2014-06-26T06:52:30.986Z,21.8
2014-06-26T06:53:35.972Z,21.74
2014-06-26T06:54:40.660Z,22.14
2014-06-26T06:55:45.631Z,21.44
2014-06-26T06:56:50.321Z,21.64
2014-06-26T06:57:55.011Z,21.96
2014-06-26T06:58:59.700Z,21.08
2014-06-26T07:00:04.389Z,21.22
2014-06-26T07:01:09.360Z,21.43
2014-06-26T07:02:14.050Z,21.58
2014-06-26T07:03:18.741Z,21.89
2014-06-26T07:04:23.726Z,21.68
2014-06-26T07:05:28.714Z,20.92
2014-06-26T07:06:33.388Z,21.4
2014-06-26T07:07:38.076Z,21.14
2014-06-26T07:08:42.750Z,21.15
2014-06-26T07:09:47.440Z,21.57
2014-06-26T07:10:52.427Z,21.46
2014-06-26T07:11:57.100Z,21.55
2014-06-26T07:13:01.789Z,21.77
2014-06-26T07:14:06.479Z,21.65
2014-06-26T07:15:11.464Z,21.58
2014-06-26T07:16:16.438Z,21.94
2014-06-26T07:17:21.126Z,22.08
2014-06-26T07:18:26.113Z,22.24
2014-06-26T07:19:30.803Z,22.28
2014-06-26T07:20:35.477Z,22.44
2014-06-26T07:21:40.166Z,22.56
2014-06-26T07:22:44.856Z,22.51
2014-06-26T07:23:49.826Z,22.42
2014-06-26T07:24:54.515Z,22.18
2014-06-26T07:25:59.502Z,22.49
2014-06-26T07:27:04.190Z,22.68
2014-06-26T07:28:08.881Z,22.45
2014-06-26T07:29:13.570Z,22.56
2014-06-26T07:30:18.558Z,22.42
2014-06-26T07:31:23.248Z,22.53
2014-06-26T07:32:28.219Z,22.38
2014-06-26T07:33:32.907Z,22.16
2014-06-26T07:34:37.597Z,22.56
2014-06-26T07:35:42.271Z,23
2014-06-26T07:36:46.960Z,23.68
2014-06-26T07:37:51.947Z,23.92
2014-06-26T07:38:56.620Z,23.17
2014-06-26T07:40:01.310Z,23.24
2014-06-26T07:41:05.999Z,23.62
2014-06-26T07:42:10.673Z,23.67
2014-06-26T07:43:15.362Z,23.81
2014-06-26T07:44:20.053Z,23.49
